Time;durP1;ratioP1;P1;durP2;ratioP2;P2;SDS_P1;SDS_P2;PMS_P1;PMS_P2;Temp;Humidity;BMP_temperature;BMP_pressure;BME280_temperature;BME280_humidity;BME280_pressure;Samples;Min_cycle;Max_cycle;Signal;HPM_P1;HPM_P2
2021/03/18 00:01:37;;;;;;;21.27;19.37;;;0.40;99.90;;;;;;5119902;28;20459;-72
2021/03/18 00:04:05;;;;;;;21.90;19.80;;;0.30;99.90;;;;;;5106236;28;20587;-70
2021/03/18 00:06:32;;;;;;;21.83;19.87;;;0.30;99.90;;;;;;5092927;27;745531;-72
2021/03/18 00:08:59;;;;;;;21.43;19.47;;;0.30;99.90;;;;;;5119006;27;20465;-72
2021/03/18 00:11:26;;;;;;;21.93;19.90;;;0.30;99.90;;;;;;5115672;27;20459;-73
2021/03/18 00:13:52;;;;;;;21.13;19.10;;;0.30;99.90;;;;;;5117622;27;21339;-73
2021/03/18 00:16:19;;;;;;;23.43;20.93;;;0.40;99.90;;;;;;5117363;27;20530;-74
2021/03/18 00:18:48;;;;;;;22.77;20.50;;;0.30;99.90;;;;;;5107869;27;20486;-73
2021/03/18 00:21:16;;;;;;;22.40;20.23;;;0.30;99.90;;;;;;5121530;27;20464;-72
2021/03/18 00:23:43;;;;;;;22.83;20.73;;;0.30;99.90;;;;;;5117037;27;20493;-72
2021/03/18 00:26:10;;;;;;;22.80;20.80;;;0.30;99.90;;;;;;5115825;27;20470;-73
2021/03/18 00:28:37;;;;;;;21.83;19.97;;;0.20;99.90;;;;;;5118261;27;20465;-71
2021/03/18 00:31:04;;;;;;;22.90;20.70;;;0.20;99.90;;;;;;5122112;27;20456;-70
2021/03/18 00:33:30;;;;;;;22.23;20.13;;;0.20;99.90;;;;;;5116203;27;20572;-73
2021/03/18 00:35:57;;;;;;;22.97;20.87;;;0.30;99.90;;;;;;5121545;27;20462;-72
2021/03/18 00:38:25;;;;;;;21.93;19.93;;;0.30;99.90;;;;;;5122892;27;20829;-73
2021/03/18 00:40:54;;;;;;;20.93;19.00;;;0.50;99.90;;;;;;5123699;27;20594;-71
2021/03/18 00:43:23;;;;;;;20.40;18.60;;;0.50;99.90;;;;;;5113227;27;20483;-72
2021/03/18 00:45:51;;;;;;;21.10;19.10;;;0.60;99.90;;;;;;5116065;27;20487;-73
2021/03/18 00:48:20;;;;;;;20.90;19.10;;;0.60;99.90;;;;;;5116934;27;20459;-74
2021/03/18 00:50:49;;;;;;;21.70;18.30;;;0.60;99.90;;;;;;5113348;27;20463;-74
2021/03/18 00:53:17;;;;;;;26.47;20.27;;;0.60;99.90;;;;;;5115194;27;20466;-74
2021/03/18 00:55:44;;;;;;;18.97;17.33;;;0.60;99.90;;;;;;5116224;27;20455;-72
2021/03/18 00:58:11;;;;;;;20.63;18.60;;;0.60;99.90;;;;;;5116986;27;20542;-71
2021/03/18 01:00:39;;;;;;;19.07;17.27;;;0.60;99.90;;;;;;5115713;27;20463;-72
2021/03/18 01:03:07;;;;;;;20.60;18.43;;;0.60;99.90;;;;;;5119128;27;20498;-74
2021/03/18 01:05:37;;;;;;;20.00;18.10;;;0.60;99.90;;;;;;5119872;27;20463;-71
2021/03/18 01:08:05;;;;;;;19.73;17.83;;;0.50;99.90;;;;;;5114540;27;20490;-70
2021/03/18 01:10:34;;;;;;;19.47;17.30;;;0.50;99.90;;;;;;5115982;27;20461;-73
2021/03/18 01:13:02;;;;;;;19.83;17.87;;;0.50;99.90;;;;;;5117554;27;20465;-72
2021/03/18 01:15:28;;;;;;;21.40;19.33;;;0.40;99.90;;;;;;5113692;27;20471;-72
2021/03/18 01:17:55;;;;;;;20.53;18.57;;;0.30;99.90;;;;;;5108585;27;21059;-74
2021/03/18 01:20:22;;;;;;;20.20;18.30;;;0.20;99.90;;;;;;5120428;27;20457;-73
2021/03/18 01:22:49;;;;;;;20.90;18.50;;;0.10;99.90;;;;;;5114998;27;20769;-73
2021/03/18 01:25:15;;;;;;;22.60;20.30;;;0.10;99.90;;;;;;5117245;27;20821;-72
2021/03/18 01:27:42;;;;;;;22.17;19.73;;;0.10;99.90;;;;;;5117045;27;20465;-72
2021/03/18 01:30:12;;;;;;;21.77;19.63;;;0.20;99.90;;;;;;5120012;27;20481;-71
2021/03/18 01:32:40;;;;;;;21.40;18.23;;;0.20;99.90;;;;;;5113833;27;20468;-74
2021/03/18 01:35:10;;;;;;;23.20;19.43;;;0.20;99.90;;;;;;5117413;27;20530;-72
2021/03/18 01:37:37;;;;;;;21.17;18.40;;;0.20;99.90;;;;;;5114363;27;20542;-71
2021/03/18 01:40:05;;;;;;;20.90;19.10;;;0.10;99.90;;;;;;5115294;27;20461;-70
2021/03/18 01:42:32;;;;;;;21.93;19.63;;;0.10;99.90;;;;;;5115118;27;20813;-72
2021/03/18 01:44:59;;;;;;;22.43;20.17;;;0.10;99.90;;;;;;5118322;27;20457;-71
2021/03/18 01:47:26;;;;;;;22.13;19.60;;;0.10;99.90;;;;;;5118169;27;20546;-73
2021/03/18 01:49:53;;;;;;;22.00;19.23;;;0.10;99.90;;;;;;5121080;27;20844;-70
2021/03/18 01:52:19;;;;;;;22.23;20.13;;;0.10;99.90;;;;;;5111695;27;20510;-73
2021/03/18 01:54:46;;;;;;;21.80;19.63;;;0.10;99.90;;;;;;5113792;27;20452;-70
2021/03/18 01:57:12;;;;;;;24.03;20.10;;;0.20;99.90;;;;;;5110410;27;20489;-73
2021/03/18 01:59:39;;;;;;;21.27;19.23;;;0.20;99.90;;;;;;5118118;27;20473;-73
2021/03/18 02:02:05;;;;;;;22.90;18.50;;;0.10;99.90;;;;;;5114088;27;21207;-72
2021/03/18 02:04:33;;;;;;;20.70;18.80;;;0.10;99.90;;;;;;5110311;27;20963;-71
2021/03/18 02:07:01;;;;;;;20.50;18.57;;;0.00;99.90;;;;;;5113679;27;20509;-73
2021/03/18 02:09:27;;;;;;;23.07;19.70;;;-0.10;99.90;;;;;;5112175;27;20467;-72
2021/03/18 02:11:54;;;;;;;22.13;18.70;;;0.00;99.90;;;;;;5118988;27;20566;-73
2021/03/18 02:14:21;;;;;;;21.20;19.23;;;-0.10;99.90;;;;;;5121349;27;20474;-72
2021/03/18 02:16:53;;;;;;;23.03;19.07;;;0.00;99.90;;;;;;5114937;27;20459;-72
2021/03/18 02:19:47;;;;;;;20.33;18.40;;;0.00;99.90;;;;;;5115778;27;20853;-71
2021/03/18 02:22:46;;;;;;;21.93;19.67;;;0.00;99.90;;;;;;5112690;27;20503;-73
2021/03/18 02:25:20;;;;;;;19.93;17.80;;;0.00;99.90;;;;;;5110293;27;20464;-71
2021/03/18 02:28:19;;;;;;;21.87;19.57;;;0.00;99.90;;;;;;5113741;27;20454;-72
2021/03/18 02:30:57;;;;;;;19.43;17.73;;;-0.10;99.90;;;;;;5115246;27;20553;-70
2021/03/18 02:33:59;;;;;;;20.40;18.40;;;-0.10;99.90;;;;;;5119312;27;20485;-71
2021/03/18 02:36:34;;;;;;;21.80;18.67;;;-0.10;99.90;;;;;;5114626;27;20462;-70
2021/03/18 02:39:04;;;;;;;20.33;18.37;;;-0.10;99.90;;;;;;5119351;27;20475;-71
2021/03/18 02:41:34;;;;;;;20.33;18.20;;;-0.20;99.90;;;;;;5118925;27;20482;-70
2021/03/18 02:44:07;;;;;;;21.40;19.50;;;-0.20;99.90;;;;;;5114506;27;20485;-70
2021/03/18 02:46:35;;;;;;;21.37;19.27;;;-0.20;99.90;;;;;;5116906;27;20464;-71
2021/03/18 02:49:05;;;;;;;20.97;18.93;;;-0.20;99.90;;;;;;5109355;27;20467;-71
2021/03/18 02:51:35;;;;;;;21.27;18.70;;;-0.20;99.90;;;;;;5116891;27;20803;-70
2021/03/18 02:54:05;;;;;;;21.27;19.20;;;-0.20;99.90;;;;;;5110320;28;20545;-70
2021/03/18 02:56:32;;;;;;;20.33;18.43;;;-0.10;99.90;;;;;;5118776;27;20460;-72
2021/03/18 02:59:02;;;;;;;21.10;19.23;;;-0.10;99.90;;;;;;5117083;28;20522;-72
2021/03/18 03:01:29;;;;;;;23.80;20.00;;;-0.10;99.90;;;;;;5107149;28;20467;-69
2021/03/18 03:03:56;;;;;;;22.47;20.37;;;-0.10;99.90;;;;;;5116266;28;20504;-72
2021/03/18 03:06:25;;;;;;;23.00;20.70;;;0.00;99.90;;;;;;5111938;28;20471;-68
2021/03/18 03:08:52;;;;;;;22.00;20.00;;;0.00;99.90;;;;;;5117604;28;20456;-69
2021/03/18 03:11:23;;;;;;;23.93;20.67;;;0.10;99.90;;;;;;5103968;28;20568;-73
2021/03/18 03:13:51;;;;;;;22.37;20.03;;;0.20;99.90;;;;;;5106388;28;20515;-70
2021/03/18 03:16:21;;;;;;;21.97;19.20;;;0.20;99.90;;;;;;5113391;28;20490;-69
2021/03/18 03:18:48;;;;;;;33.90;19.77;;;0.10;99.90;;;;;;5112410;28;20493;-74
2021/03/18 03:21:18;;;;;;;23.00;20.53;;;0.20;99.90;;;;;;5116782;28;20461;-70
2021/03/18 03:23:46;;;;;;;25.03;19.73;;;0.20;99.90;;;;;;5115088;28;20494;-70
2021/03/18 03:26:15;;;;;;;23.37;20.73;;;0.30;99.90;;;;;;5114019;28;21014;-73
2021/03/18 03:28:42;;;;;;;23.77;21.57;;;0.30;99.90;;;;;;5112230;28;20504;-73
2021/03/18 03:31:09;;;;;;;23.00;20.60;;;0.40;99.90;;;;;;5110075;28;20472;-72
2021/03/18 03:33:36;;;;;;;24.07;21.67;;;0.50;99.90;;;;;;5114601;28;20458;-70
2021/03/18 03:36:03;;;;;;;32.30;22.60;;;0.50;99.90;;;;;;5116671;28;20462;-71
2021/03/18 03:38:29;;;;;;;24.70;22.40;;;0.50;99.90;;;;;;5118331;28;20464;-73
2021/03/18 03:40:56;;;;;;;24.30;21.90;;;0.60;99.90;;;;;;5115796;28;20490;-71
2021/03/18 03:43:24;;;;;;;23.77;21.60;;;0.60;99.90;;;;;;5109588;28;20500;-70
2021/03/18 03:45:51;;;;;;;26.93;23.90;;;0.70;99.90;;;;;;5114596;28;20467;-70
2021/03/18 03:48:18;;;;;;;32.50;24.00;;;0.70;99.90;;;;;;5112683;28;20459;-70
2021/03/18 03:50:45;;;;;;;24.87;22.30;;;0.70;99.90;;;;;;5115651;28;20528;-70
2021/03/18 03:53:15;;;;;;;25.77;23.30;;;0.80;99.90;;;;;;5111538;28;20463;-71
2021/03/18 03:55:55;;;;;;;25.60;21.90;;;0.80;99.90;;;;;;5107483;28;20472;-74
2021/03/18 03:58:38;;;;;;;27.57;24.53;;;0.80;99.90;;;;;;5105181;27;20472;-75
2021/03/18 04:01:08;;;;;;;25.50;22.83;;;0.70;99.90;;;;;;5111641;27;20458;-72
2021/03/18 04:03:36;;;;;;;30.37;23.90;;;0.60;99.90;;;;;;5110729;27;20519;-73
2021/03/18 04:06:04;;;;;;;30.07;24.03;;;0.60;99.90;;;;;;5117421;27;20459;-73
2021/03/18 04:08:33;;;;;;;25.67;23.20;;;0.70;99.90;;;;;;5117077;27;20494;-71
2021/03/18 04:11:01;;;;;;;28.30;24.10;;;0.70;99.90;;;;;;5116147;27;20458;-72
2021/03/18 04:13:30;;;;;;;33.33;24.20;;;0.60;99.90;;;;;;5116705;27;20470;-73
2021/03/18 04:15:59;;;;;;;27.60;24.60;;;0.60;99.90;;;;;;5117799;27;20471;-74
2021/03/18 04:18:30;;;;;;;27.53;23.80;;;0.60;99.90;;;;;;5103020;27;20573;-70
2021/03/18 04:20:59;;;;;;;25.83;23.33;;;0.60;99.90;;;;;;5119755;27;20568;-74
2021/03/18 04:23:29;;;;;;;30.73;22.87;;;0.60;99.90;;;;;;5115656;27;20482;-73
2021/03/18 04:25:58;;;;;;;27.27;24.60;;;0.60;99.90;;;;;;5117862;27;20475;-74
2021/03/18 04:28:27;;;;;;;31.70;24.40;;;0.60;99.90;;;;;;5121656;27;20556;-71
2021/03/18 04:30:54;;;;;;;26.40;23.50;;;0.70;99.90;;;;;;5117500;27;20471;-69
2021/03/18 04:33:23;;;;;;;26.47;23.83;;;0.70;99.90;;;;;;5120913;27;20482;-74
2021/03/18 04:35:50;;;;;;;30.60;27.47;;;0.80;99.90;;;;;;5114514;27;20551;-70
2021/03/18 04:38:17;;;;;;;27.10;24.30;;;0.90;99.90;;;;;;5119840;27;20456;-73
2021/03/18 04:40:44;;;;;;;27.03;24.13;;;1.00;99.90;;;;;;5115151;27;20491;-72
2021/03/18 04:43:12;;;;;;;27.30;24.70;;;1.00;99.90;;;;;;5121676;27;20522;-71
2021/03/18 04:45:40;;;;;;;37.40;25.03;;;1.00;99.90;;;;;;5115716;27;20524;-73
2021/03/18 04:48:08;;;;;;;26.10;23.33;;;1.00;99.90;;;;;;5116646;27;20466;-69
2021/03/18 04:50:36;;;;;;;26.37;23.87;;;1.10;99.90;;;;;;5114983;27;20520;-70
2021/03/18 04:53:03;;;;;;;28.83;25.80;;;1.10;99.90;;;;;;5119107;27;20468;-69
2021/03/18 04:55:30;;;;;;;32.00;24.60;;;1.10;99.90;;;;;;5119240;27;20467;-73
2021/03/18 04:58:00;;;;;;;27.83;24.83;;;1.10;99.90;;;;;;5115246;27;20461;-70
2021/03/18 05:00:29;;;;;;;29.37;26.17;;;1.00;99.90;;;;;;5118664;27;20549;-70
2021/03/18 05:03:01;;;;;;;33.57;24.87;;;1.00;99.90;;;;;;5121581;27;20989;-71
2021/03/18 05:05:29;;;;;;;27.50;24.33;;;1.00;99.90;;;;;;5118785;27;20858;-71
2021/03/18 05:07:57;;;;;;;32.20;25.30;;;1.00;99.90;;;;;;5116587;27;20993;-71
2021/03/18 05:10:28;;;;;;;28.30;25.07;;;1.00;99.90;;;;;;5119015;27;20466;-72
2021/03/18 05:12:55;;;;;;;29.03;25.90;;;1.00;99.90;;;;;;5119464;27;20467;-71
2021/03/18 05:15:23;;;;;;;28.37;24.63;;;1.00;99.90;;;;;;5118504;27;20972;-70
2021/03/18 05:17:50;;;;;;;28.93;26.10;;;0.90;99.90;;;;;;5119468;27;20580;-72
2021/03/18 05:20:21;;;;;;;29.80;26.23;;;0.90;99.90;;;;;;5116268;27;20471;-73
2021/03/18 05:22:48;;;;;;;36.73;25.90;;;0.90;99.90;;;;;;5107926;27;20622;-73
2021/03/18 05:25:19;;;;;;;28.47;25.30;;;0.80;99.90;;;;;;5114386;27;20865;-73
2021/03/18 05:27:45;;;;;;;28.33;25.53;;;0.90;99.90;;;;;;5116714;27;20503;-70
2021/03/18 05:30:14;;;;;;;30.97;26.50;;;0.90;99.90;;;;;;5116281;27;20471;-71
2021/03/18 05:32:41;;;;;;;33.53;27.33;;;0.90;99.90;;;;;;5116487;27;20464;-73
2021/03/18 05:35:10;;;;;;;35.30;24.57;;;1.00;99.90;;;;;;5118076;27;20472;-73
2021/03/18 05:37:37;;;;;;;28.80;25.70;;;1.00;99.90;;;;;;5120262;27;21065;-74
2021/03/18 05:40:06;;;;;;;29.30;26.33;;;1.00;99.90;;;;;;5123107;27;20542;-71
2021/03/18 05:42:34;;;;;;;29.30;26.20;;;1.00;99.90;;;;;;5117259;27;20481;-72
2021/03/18 05:45:01;;;;;;;29.07;26.13;;;0.90;99.90;;;;;;5114143;27;21018;-75
2021/03/18 05:47:34;;;;;;;29.37;26.03;;;1.00;99.90;;;;;;5120959;27;20461;-76
2021/03/18 05:50:03;;;;;;;29.73;26.73;;;0.90;99.90;;;;;;5109583;27;20510;-73
2021/03/18 05:52:31;;;;;;;31.23;27.93;;;0.90;99.90;;;;;;5114975;27;20516;-71
2021/03/18 05:54:58;;;;;;;29.23;26.33;;;0.80;99.90;;;;;;5113031;27;20493;-71
2021/03/18 05:57:26;;;;;;;31.67;28.30;;;0.80;99.90;;;;;;5113223;27;20463;-71
2021/03/18 05:59:56;;;;;;;28.90;26.10;;;0.70;99.90;;;;;;5114728;27;20566;-74
2021/03/18 06:02:23;;;;;;;30.40;27.47;;;0.70;99.90;;;;;;5112085;27;20498;-72
2021/03/18 06:04:49;;;;;;;30.67;27.13;;;0.70;99.90;;;;;;5116805;27;20831;-75
2021/03/18 06:07:16;;;;;;;30.77;27.53;;;0.70;99.90;;;;;;5107978;27;20567;-71
2021/03/18 06:09:42;;;;;;;34.83;27.13;;;0.80;99.90;;;;;;5097338;28;20460;-75
2021/03/18 06:12:10;;;;;;;33.80;28.03;;;0.80;99.90;;;;;;5095094;28;21122;-73
2021/03/18 06:14:36;;;;;;;29.47;26.67;;;0.80;99.90;;;;;;5096528;28;20455;-72
2021/03/18 06:17:04;;;;;;;29.93;26.77;;;0.90;99.90;;;;;;5099564;28;21052;-71
2021/03/18 06:19:30;;;;;;;31.13;27.87;;;0.90;99.90;;;;;;5093759;28;20470;-72
2021/03/18 06:21:59;;;;;;;32.00;27.27;;;0.90;99.90;;;;;;5093825;28;20465;-73
2021/03/18 06:24:28;;;;;;;30.50;27.37;;;0.90;99.90;;;;;;5097247;28;20550;-71
2021/03/18 06:26:56;;;;;;;31.63;27.70;;;0.90;99.90;;;;;;5092612;28;20468;-72
2021/03/18 06:29:31;;;;;;;36.53;28.20;;;0.90;99.90;;;;;;5095417;28;20458;-72
2021/03/18 06:32:02;;;;;;;32.90;27.07;;;1.00;99.90;;;;;;5088110;28;20465;-73
2021/03/18 06:34:41;;;;;;;30.57;27.40;;;1.00;99.90;;;;;;5095112;28;20472;-73
2021/03/18 06:37:29;;;;;;;37.40;26.80;;;1.00;99.90;;;;;;5091064;28;20480;-71
2021/03/18 06:39:55;;;;;;;32.63;28.60;;;1.00;99.90;;;;;;5082141;28;20518;-71
2021/03/18 06:42:22;;;;;;;40.40;32.17;;;1.00;99.90;;;;;;5091434;28;20493;-72
2021/03/18 06:44:48;;;;;;;51.40;36.23;;;1.00;99.90;;;;;;5092479;28;20959;-71
2021/03/18 06:47:15;;;;;;;37.50;33.73;;;1.10;99.90;;;;;;5089842;28;20611;-72
2021/03/18 06:49:42;;;;;;;42.30;34.03;;;1.20;99.90;;;;;;5092251;28;20559;-72
2021/03/18 06:52:11;;;;;;;37.37;33.30;;;1.20;99.90;;;;;;5091768;28;20559;-72
2021/03/18 06:54:39;;;;;;;42.60;34.93;;;1.30;99.90;;;;;;5093824;28;20573;-72
2021/03/18 06:57:06;;;;;;;42.47;36.83;;;1.20;99.90;;;;;;5093444;28;20822;-72
2021/03/18 06:59:34;;;;;;;48.50;37.93;;;1.30;99.90;;;;;;5089399;28;20483;-72
2021/03/18 07:02:07;;;;;;;47.77;38.10;;;1.40;99.90;;;;;;5089527;28;20479;-70
2021/03/18 07:04:37;;;;;;;47.90;38.47;;;1.40;99.90;;;;;;5093666;28;20499;-72
2021/03/18 07:07:05;;;;;;;40.60;36.13;;;1.40;99.90;;;;;;5091820;28;20475;-72
2021/03/18 07:09:32;;;;;;;39.60;35.27;;;1.60;99.90;;;;;;5105846;28;20539;-73
2021/03/18 07:12:01;;;;;;;36.93;32.97;;;1.60;99.90;;;;;;5113034;28;20468;-71
2021/03/18 07:14:39;;;;;;;37.40;32.50;;;1.80;99.90;;;;;;5116107;28;20503;-71
2021/03/18 07:17:07;;;;;;;37.20;33.33;;;1.80;99.90;;;;;;5114126;28;20452;-71
2021/03/18 07:19:34;;;;;;;46.97;37.60;;;1.70;99.90;;;;;;5109302;28;21051;-72
2021/03/18 07:22:02;;;;;;;40.50;36.23;;;1.80;99.90;;;;;;5111607;28;20542;-72
2021/03/18 07:24:32;;;;;;;44.63;37.00;;;1.90;99.90;;;;;;5107705;28;20498;-71
2021/03/18 07:27:06;;;;;;;40.93;35.67;;;2.00;99.90;;;;;;5110701;28;20942;-71
2021/03/18 07:29:32;;;;;;;56.07;39.17;;;2.20;99.90;;;;;;5112459;28;20465;-72
2021/03/18 07:31:59;;;;;;;65.70;41.80;;;2.20;99.90;;;;;;5113202;28;20817;-72
2021/03/18 07:34:25;;;;;;;63.57;41.00;;;2.30;99.90;;;;;;5118668;27;20983;-71
2021/03/18 07:36:56;;;;;;;81.40;41.00;;;2.50;99.90;;;;;;5116234;27;20476;-70
2021/03/18 07:39:23;;;;;;;64.43;38.23;;;2.40;99.90;;;;;;5111365;27;20463;-72
2021/03/18 07:41:51;;;;;;;67.40;42.20;;;2.50;99.90;;;;;;5111849;27;20454;-71
2021/03/18 07:44:19;;;;;;;72.33;42.97;;;2.60;99.90;;;;;;5112982;27;21040;-73
2021/03/18 07:46:47;;;;;;;97.97;47.33;;;2.50;99.90;;;;;;5108626;27;20460;-72
2021/03/18 07:49:16;;;;;;;84.10;44.67;;;2.70;99.90;;;;;;5111597;27;20461;-70
2021/03/18 07:51:46;;;;;;;88.53;45.87;;;2.90;99.90;;;;;;5116726;27;20454;-70
2021/03/18 07:54:17;;;;;;;70.00;43.63;;;2.60;99.90;;;;;;5111992;27;20449;-73
2021/03/18 07:56:48;;;;;;;61.93;41.87;;;2.90;99.90;;;;;;5121547;27;20465;-72
2021/03/18 07:59:18;;;;;;;61.33;39.80;;;3.00;99.90;;;;;;5119605;27;20472;-72
2021/03/18 08:01:44;;;;;;;55.53;38.17;;;3.10;99.90;;;;;;5113221;27;20940;-73
2021/03/18 08:04:12;;;;;;;49.70;36.60;;;3.10;99.90;;;;;;5109126;27;20488;-72
2021/03/18 08:06:54;;;;;;;57.50;37.40;;;2.90;99.90;;;;;;5089205;27;20488;-72
2021/03/18 08:09:48;;;;;;;73.73;40.10;;;2.90;99.90;;;;;;5109854;27;20540;-73
2021/03/18 08:12:14;;;;;;;83.00;42.90;;;3.10;99.90;;;;;;5102962;27;20455;-72
2021/03/18 08:14:42;;;;;;;75.90;43.97;;;3.10;99.90;;;;;;5111463;27;20465;-71
2021/03/18 08:17:28;;;;;;;95.40;45.27;;;3.50;99.90;;;;;;5117120;27;20460;-72
2021/03/18 08:19:55;;;;;;;71.37;44.27;;;3.50;99.90;;;;;;5114767;27;20812;-73
2021/03/18 08:22:28;;;;;;;56.37;36.90;;;3.80;99.90;;;;;;5103704;27;20463;-72
2021/03/18 08:24:55;;;;;;;51.90;36.57;;;4.10;99.90;;;;;;5104669;27;20464;-74
2021/03/18 08:27:28;;;;;;;53.63;38.03;;;4.00;99.90;;;;;;5113986;27;20500;-71
2021/03/18 08:29:56;;;;;;;43.57;35.53;;;3.80;99.90;;;;;;5110132;27;20461;-72
2021/03/18 08:32:28;;;;;;;46.30;34.10;;;4.10;99.90;;;;;;5112586;27;20476;-71
2021/03/18 08:34:56;;;;;;;55.63;32.83;;;3.90;99.90;;;;;;5113277;27;20468;-74
2021/03/18 08:37:34;;;;;;;41.30;32.13;;;3.90;99.90;;;;;;5113419;27;20468;-75
2021/03/18 08:40:02;;;;;;;42.27;33.93;;;3.90;99.90;;;;;;5115407;27;20547;-72
2021/03/18 08:42:43;;;;;;;41.27;34.47;;;4.20;99.90;;;;;;5110141;27;20468;-72
2021/03/18 08:45:35;;;;;;;46.97;33.17;;;4.10;99.90;;;;;;5113019;27;20465;-72
2021/03/18 08:48:10;;;;;;;45.83;34.90;;;4.10;99.90;;;;;;5111184;27;20464;-74
2021/03/18 08:50:57;;;;;;;36.43;32.40;;;4.60;99.90;;;;;;5114102;27;20512;-74
2021/03/18 08:53:33;;;;;;;42.37;32.47;;;5.10;99.90;;;;;;5115023;27;20548;-72
2021/03/18 08:56:00;;;;;;;49.33;35.40;;;5.00;99.90;;;;;;5113313;27;20472;-73
2021/03/18 08:58:27;;;;;;;53.30;35.93;;;5.10;99.90;;;;;;5112184;27;20464;-72
2021/03/18 09:00:54;;;;;;;52.90;36.43;;;5.00;99.90;;;;;;5110960;27;20457;-74
2021/03/18 09:03:22;;;;;;;50.00;38.97;;;5.00;99.90;;;;;;5115714;27;21067;-72
2021/03/18 09:05:51;;;;;;;43.70;38.20;;;5.00;99.90;;;;;;5115316;27;20461;-72
2021/03/18 09:08:23;;;;;;;37.03;31.73;;;5.30;99.90;;;;;;5113427;27;20839;-71
2021/03/18 09:10:49;;;;;;;35.43;31.30;;;5.30;99.90;;;;;;5108715;27;20489;-75
2021/03/18 09:13:17;;;;;;;41.97;31.70;;;5.40;99.90;;;;;;5114333;27;20458;-71
2021/03/18 09:15:45;;;;;;;40.37;33.77;;;5.30;99.90;;;;;;5120404;27;20457;-73
2021/03/18 09:18:18;;;;;;;38.33;33.97;;;5.40;99.90;;;;;;5114227;27;20477;-75
2021/03/18 09:20:48;;;;;;;42.73;37.00;;;5.10;99.90;;;;;;5116469;27;20882;-72
2021/03/18 09:23:17;;;;;;;51.93;39.03;;;5.20;99.90;;;;;;5116387;27;20720;-74
2021/03/18 09:25:44;;;;;;;47.40;38.00;;;5.30;99.90;;;;;;5111427;27;20947;-73
2021/03/18 09:28:12;;;;;;;43.93;35.27;;;5.40;99.90;;;;;;5102662;27;20514;-73
2021/03/18 09:30:39;;;;;;;41.63;36.63;;;5.60;99.90;;;;;;5108587;27;20457;-72
2021/03/18 09:33:22;;;;;;;44.73;38.47;;;5.70;99.90;;;;;;5110412;27;20543;-72
2021/03/18 09:35:50;;;;;;;61.20;45.33;;;5.80;99.90;;;;;;5107921;27;20884;-73
2021/03/18 09:38:18;;;;;;;61.73;43.50;;;5.90;99.90;;;;;;5111816;27;20962;-75
2021/03/18 09:40:46;;;;;;;58.70;45.63;;;6.00;99.90;;;;;;5115421;27;20974;-74
2021/03/18 09:43:15;;;;;;;53.93;43.53;;;6.00;99.90;;;;;;5116207;27;20524;-73
2021/03/18 09:45:50;;;;;;;47.90;41.67;;;6.00;99.90;;;;;;5115172;27;20468;-76
2021/03/18 09:48:28;;;;;;;54.90;41.67;;;6.10;99.90;;;;;;5113389;27;20466;-74
2021/03/18 09:50:55;;;;;;;52.33;42.37;;;6.10;99.90;;;;;;5109473;27;20553;-76
2021/03/18 09:53:23;;;;;;;42.23;36.40;;;6.30;99.90;;;;;;5107591;27;20469;-73
2021/03/18 09:55:50;;;;;;;45.43;35.90;;;6.20;99.90;;;;;;5106554;27;20827;-74
2021/03/18 09:58:18;;;;;;;43.40;33.67;;;5.90;99.90;;;;;;5117174;27;20466;-73
2021/03/18 10:00:44;;;;;;;35.57;29.00;;;5.80;99.90;;;;;;5115208;27;20461;-75
2021/03/18 10:03:11;;;;;;;36.63;32.30;;;5.80;99.90;;;;;;5118131;27;20487;-76
2021/03/18 10:05:38;;;;;;;33.80;30.30;;;5.70;99.90;;;;;;5113437;27;20477;-72
2021/03/18 10:08:05;;;;;;;28.70;24.83;;;5.60;99.90;;;;;;5116418;27;20484;-73
2021/03/18 10:10:33;;;;;;;26.20;23.90;;;5.70;99.90;;;;;;5113118;27;20537;-76
2021/03/18 10:13:00;;;;;;;23.57;21.67;;;5.70;99.90;;;;;;5112405;27;20817;-75
2021/03/18 10:15:27;;;;;;;26.23;23.90;;;5.90;99.90;;;;;;5113885;27;20976;-74
2021/03/18 10:17:55;;;;;;;23.20;21.40;;;6.00;99.90;;;;;;5099264;27;20480;-72
2021/03/18 10:20:25;;;;;;;23.87;21.47;;;6.00;99.90;;;;;;5106580;27;20465;-74
2021/03/18 10:23:01;;;;;;;25.13;23.13;;;5.90;99.90;;;;;;5107601;27;21389;-74
2021/03/18 10:25:29;;;;;;;23.80;21.90;;;5.90;99.90;;;;;;5111110;27;20531;-74
2021/03/18 10:28:02;;;;;;;25.73;23.63;;;6.00;99.90;;;;;;5112447;27;20452;-74
2021/03/18 10:30:29;;;;;;;26.10;23.60;;;6.10;99.90;;;;;;5113580;27;20493;-74
2021/03/18 10:33:08;;;;;;;25.03;22.83;;;6.20;99.90;;;;;;5107141;27;20473;-73
2021/03/18 10:35:39;;;;;;;24.83;22.77;;;6.40;99.90;;;;;;5101964;27;21072;-74
2021/03/18 10:38:10;;;;;;;25.30;22.87;;;6.50;99.90;;;;;;5100787;27;21040;-75
2021/03/18 10:40:41;;;;;;;23.83;21.90;;;6.40;99.90;;;;;;5109969;27;20557;-74
2021/03/18 10:43:19;;;;;;;23.83;21.60;;;6.50;99.90;;;;;;5097738;27;20527;-71
2021/03/18 10:45:46;;;;;;;27.30;22.93;;;6.50;99.90;;;;;;5107553;27;20469;-71
2021/03/18 10:48:18;;;;;;;24.83;22.10;;;6.50;99.90;;;;;;5115076;27;21041;-75
2021/03/18 10:50:45;;;;;;;24.27;21.87;;;6.80;99.90;;;;;;5108136;27;20461;-72
2021/03/18 10:53:14;;;;;;;25.13;22.43;;;7.00;99.90;;;;;;5106299;27;20458;-74
2021/03/18 10:55:44;;;;;;;24.40;22.30;;;7.20;99.90;;;;;;5106799;27;21033;-72
2021/03/18 10:58:16;;;;;;;24.00;21.97;;;7.30;99.90;;;;;;5108269;27;20556;-75
2021/03/18 11:00:44;;;;;;;22.77;20.70;;;7.50;99.90;;;;;;5107831;27;20468;-76
2021/03/18 11:03:13;;;;;;;31.93;23.40;;;7.40;99.90;;;;;;5099952;28;20485;-75
2021/03/18 11:05:43;;;;;;;24.97;22.80;;;7.20;99.90;;;;;;5099203;28;20457;-76
2021/03/18 11:08:12;;;;;;;24.77;22.63;;;7.80;99.90;;;;;;5110681;27;20562;-75
2021/03/18 11:10:41;;;;;;;23.90;21.80;;;8.40;99.90;;;;;;5114797;27;20503;-76
2021/03/18 11:13:12;;;;;;;22.43;20.77;;;8.80;99.90;;;;;;5103447;27;20469;-72
2021/03/18 11:16:00;;;;;;;23.00;21.17;;;9.00;99.90;;;;;;5111896;27;20552;-75
2021/03/18 11:18:33;;;;;;;23.10;21.30;;;9.10;99.90;;;;;;5099634;27;21154;-75
2021/03/18 11:21:00;;;;;;;23.23;21.13;;;9.20;99.90;;;;;;5112189;27;21149;-73
2021/03/18 11:23:35;;;;;;;23.57;21.40;;;9.10;99.90;;;;;;5114849;27;20499;-74
2021/03/18 11:26:04;;;;;;;22.73;20.67;;;9.00;99.90;;;;;;5111660;27;20517;-73
2021/03/18 11:28:31;;;;;;;23.50;21.80;;;8.90;99.90;;;;;;5114292;27;21098;-74
2021/03/18 11:30:58;;;;;;;20.90;19.40;;;8.70;99.90;;;;;;5106949;27;20961;-74
2021/03/18 11:33:32;;;;;;;22.57;20.83;;;8.50;99.90;;;;;;5100887;27;20471;-75
2021/03/18 11:36:01;;;;;;;21.20;19.70;;;8.30;99.90;;;;;;5105398;27;20466;-73
2021/03/18 11:38:27;;;;;;;20.40;18.90;;;8.60;99.90;;;;;;5117622;27;20460;-75
2021/03/18 11:40:55;;;;;;;19.73;18.23;;;8.70;99.90;;;;;;5104746;27;20956;-75
2021/03/18 11:43:24;;;;;;;22.07;20.17;;;8.60;99.90;;;;;;5102189;27;20487;-73
2021/03/18 11:45:50;;;;;;;21.93;19.57;;;8.90;99.90;;;;;;5106370;27;20462;-74
2021/03/18 11:48:17;;;;;;;20.70;19.30;;;8.90;99.90;;;;;;5101382;27;20460;-74
2021/03/18 11:50:43;;;;;;;20.60;18.77;;;9.10;99.90;;;;;;5113686;27;20460;-74
2021/03/18 11:53:10;;;;;;;18.83;17.73;;;9.10;99.90;;;;;;5104041;27;21035;-77
2021/03/18 11:55:37;;;;;;;20.23;18.70;;;8.70;99.90;;;;;;5113075;27;20490;-73
2021/03/18 11:58:04;;;;;;;18.63;17.53;;;9.00;99.90;;;;;;5106278;27;20471;-72
2021/03/18 12:00:36;;;;;;;19.97;18.23;;;8.50;99.90;;;;;;5110739;27;21028;-73
2021/03/18 12:03:05;;;;;;;19.20;17.80;;;8.10;99.90;;;;;;5105980;27;21112;-73
2021/03/18 12:05:31;;;;;;;19.70;18.10;;;8.10;99.90;;;;;;5100779;27;20457;-77
2021/03/18 12:07:57;;;;;;;18.63;17.43;;;8.00;99.90;;;;;;5106274;27;20566;-73
2021/03/18 12:10:25;;;;;;;18.37;16.93;;;7.90;99.90;;;;;;5104074;27;20465;-76
2021/03/18 12:12:51;;;;;;;18.67;17.43;;;8.30;99.90;;;;;;5106266;27;21017;-76
2021/03/18 12:15:19;;;;;;;19.00;17.83;;;8.60;99.90;;;;;;5111624;27;20464;-75
2021/03/18 12:17:45;;;;;;;18.13;16.73;;;8.80;99.90;;;;;;5106906;27;20540;-73
2021/03/18 12:20:16;;;;;;;19.20;17.70;;;8.60;99.90;;;;;;5113371;27;20563;-74
2021/03/18 12:22:43;;;;;;;18.90;17.50;;;8.70;99.90;;;;;;5103790;27;20475;-73
2021/03/18 12:25:11;;;;;;;18.70;17.40;;;8.60;99.90;;;;;;5108343;27;20464;-73
2021/03/18 12:27:38;;;;;;;18.53;17.33;;;8.30;99.90;;;;;;5106843;27;20532;-73
2021/03/18 12:30:07;;;;;;;18.30;17.10;;;8.60;99.90;;;;;;5103018;27;20471;-73
2021/03/18 12:32:34;;;;;;;18.73;17.40;;;8.70;99.90;;;;;;5105877;27;20474;-73
2021/03/18 12:35:01;;;;;;;19.70;18.20;;;8.70;99.90;;;;;;5114427;27;21127;-75
2021/03/18 12:37:28;;;;;;;20.07;18.37;;;8.60;99.90;;;;;;5110934;27;20999;-72
2021/03/18 12:39:54;;;;;;;19.37;17.93;;;8.90;99.90;;;;;;5111273;27;20459;-72
2021/03/18 12:42:21;;;;;;;19.03;17.40;;;8.60;99.90;;;;;;5108944;27;20479;-76
2021/03/18 12:44:47;;;;;;;18.43;16.93;;;8.90;99.90;;;;;;5094954;27;20488;-74
2021/03/18 12:47:14;;;;;;;18.37;17.30;;;9.20;99.90;;;;;;5109371;27;21107;-74